NCAR-RAP Real-Time Weather Data

Output produced by METARs form (12 August 2020  18:49 UTC)
found at http://weather.rap.ucar.edu/surface/
 
KBHM 121753Z 30009KT 10SM FEW048 BKN250 33/22 A3004 RMK AO2 SLP161 T03330217 10333 20239 58013
KBHM 121653Z 00000KT 10SM FEW046 SCT120 BKN250 32/21 A3006 RMK AO2 SLP170 T03220206
KBHM 121553Z 28007KT 10SM FEW035 BKN120 31/22 A3009 RMK AO2 SLP177 T03060222
KBHM 121453Z 21003KT 10SM FEW055 FEW150 SCT250 29/22 A3008 RMK AO2 SLP174 T02940217 51006
KBHM 121353Z 20003KT 10SM FEW055 FEW150 SCT250 27/22 A3007 RMK AO2 SLP173 T02720217
KBHM 121253Z 00000KT 10SM FEW150 SCT250 26/22 A3007 RMK AO2 SLP173 T02610222
KBHM 121153Z 10003KT 10SM FEW060 SCT150 SCT250 24/22 A3006 RMK AO2 SLP168 T02440217 10261 20233 53010
KBHM 121053Z 00000KT 10SM FEW060 SCT150 24/22 A3004 RMK AO2 SLP164 T02390217
KBHM 120953Z 00000KT 10SM SCT150 24/22 A3004 RMK AO2 SLP161 T02390217
KBHM 120853Z 29005KT 10SM SCT150 25/22 A3002 RMK AO2 SLP157 T02500217 55014
KBHM 120753Z VRB03KT 10SM SCT150 25/22 A2999 RMK AO2 SLP145 T02500217
KBHM 120653Z 00000KT 10SM FEW070 BKN250 25/22 A3002 RMK AO2 SLP157 T02500217
KBHM 120553Z 24008KT 10SM FEW060 SCT070 26/22 A3007 RMK AO2 LTG DSNT W SLP171 T02610217 10333 20261 403440244 50018
KBHM 120453Z 22007KT 10SM BKN055 27/22 A3007 RMK AO2 LTG DSNT W SLP173 T02720217
KBHM 120353Z 14004KT 10SM CLR 28/22 A3005 RMK AO2 SLP166 T02780217
KBHM 120253Z 00000KT 10SM FEW250 29/20 A3001 RMK AO2 SLP153 T02890200 51009
KBHM 120153Z 19003KT 10SM SCT250 29/21 A3001 RMK AO2 SLP152 T02940206
KBHM 120053Z 15004KT 10SM FEW100 SCT250 30/22 A3000 RMK AO2 SLP148 T03000217
KBHM 112353Z 00000KT 10SM FEW055 SCT250 33/21 A2999 RMK AO2 LTG DSNT SW SLP143 T03330211 10344 20322 55000
KBHM 112332Z 01005KT 10SM FEW055 BKN250 33/22 A2998 RMK AO2 LTG DSNT S AND SW T03330217
KBHM 112312Z 35003KT 10SM VCTS FEW060 BKN250 33/22 A2998 RMK AO2 LTG DSNT S AND SW T03330217
KBHM 112253Z 36003KT 10SM FEW050 BKN250 33/22 A2998 RMK AO2 LTG DSNT S AND W SLP142 T03280222
KBHM 112153Z 36008KT 10SM FEW050 SCT250 34/22 A2998 RMK AO2 SLP142 T03390217
KBHM 112053Z 32003KT 10SM FEW050 SCT250 33/22 A2999 RMK AO2 LTG DSNT S SLP143 T03330217 56025
KBHM 111953Z 02007KT 10SM FEW045 SCT120 SCT250 34/23 A3000 RMK AO2 LTG DSNT S AND SW SLP148 T03390228
KBHM 111853Z 31007KT 10SM FEW042 SCT150 BKN250 33/22 A3003 RMK AO2 SLP159 CB DSNT W MOV E T03280222
KBHM 111753Z 26006KT 10SM FEW039 BKN150 BKN250 33/23 A3006 RMK AO2 SLP169 T03280228 10328 20244 58005
KBHM 111653Z 24008KT 10SM BKN150 BKN250 32/23 A3008 RMK AO2 SLP174 T03170233
KBHM 111553Z 00000KT 10SM BKN150 BKN250 31/23 A3008 RMK AO2 SLP176 T03060228
KBHM 111453Z 35005KT 10SM BKN150 BKN250 31/23 A3008 RMK AO2 SLP175 T03060228 55005
KBHM 111353Z 17006KT 10SM FEW095 BKN150 BKN250 28/22 A3007 RMK AO2 SLP173 CB DSNT SW T02780222
KBHM 111253Z 00000KT 10SM SCT018 SCT095 BKN250 26/21 A3006 RMK AO2 SLP169 CB DSNT SW T02560211
KBHM 111221Z 00000KT 10SM SCT018 SCT095 BKN250 25/21 A3007 RMK AO2 CB DSNT N AND SW AND NW T02500211
KBHM 111153Z 36007KT 10SM BKN016 OVC049 24/21 A3009 RMK AO2 SLP181 T02440211 10261 20244 53020
KBHM 111053Z 00000KT 10SM FEW060 SCT095 25/22 A3005 RMK AO2 LTG DSNT N AND NW SLP167 T02500217
KBHM 110953Z 14003KT 10SM BKN120 25/21 A3004 RMK AO2 SLP163 T02500211
KBHM 110853Z 13003KT 10SM BKN120 25/21 A3003 RMK AO2 LTG DSNT NE SLP159 T02500211 56007
KBHM 110753Z 00000KT 10SM SCT050 26/21 A3004 RMK AO2 SLP161 T02560206
KBHM 110653Z 10003KT 10SM SCT050 26/21 A3004 RMK AO2 SLP161 T02560206
KBHM 110553Z 19003KT 10SM SCT060 26/21 A3005 RMK AO2 SLP167 T02560206 10322 20256 403500239 58005
KBHM 110453Z 18004KT 10SM SCT060 26/21 A3006 RMK AO2 SLP169 T02610206
KBHM 110353Z VRB04KT 10SM FEW070 SCT250 27/20 A3007 RMK AO2 LTG DSNT NE SLP173 T02720200
KBHM 110253Z 07005KT 10SM FEW070 BKN250 28/20 A3007 RMK AO2 SLP172 T02780200 53018
KBHM 110153Z 00000KT 10SM BKN250 29/22 A3004 RMK AO2 SLP162 T02890217
KBHM 110053Z 35005KT 10SM FEW150 BKN250 29/22 A3003 RMK AO2 LTG DSNT NE SLP161 T02940217
KBHM 102353Z 27007KT 10SM FEW100 BKN250 32/22 A3001 RMK AO2 LTG DSNT N SLP153 T03220217 10350 20317 56008
KBHM 102253Z COR 24005KT 10SM FEW060 SCT250 33/21 A3002 RMK AO2 LTG DSNT NW SLP154 T03330206
KBHM 102153Z 23010KT 10SM SCT060 BKN250 32/19 A3003 RMK AO2 LTG DSNT E AND NW SLP160 T03170194
KBHM 102100Z 25016G23KT 10SM SCT055 BKN250 33/21 A3004 RMK AO2 LTG DSNT ALQDS T03330206
KBHM 102053Z 27013G18KT 10SM VCTS SCT055 BKN250 34/21 A3004 RMK AO2 LTG DSNT E AND SW AND W SLP162 T03390211 56023
KBHM 102041Z 27011G16KT 10SM VCTS FEW055 SCT250 34/22 A3005 RMK AO2 LTG DSNT E AND SW AND W T03440217
KBHM 102016Z 30007KT 10SM FEW055 SCT250 35/20 A3005 RMK AO2 LTG DSNT NE AND SW AND W T03500200
KBHM 102001Z 30009KT 10SM VCTS FEW050 SCT250 35/19 A3005 RMK AO2 LTG DSNT SW AND W T03500194
KBHM 101953Z 29006KT 10SM FEW050 SCT250 34/19 A3005 RMK AO2 LTG DSNT W SLP166 T03440194
KBHM 101853Z 30007KT 260V330 10SM FEW050 SCT250 34/21 A3008 RMK AO2 SLP177 CB DSNT SE AND W-N MOV E T03440211